Accueil
METAR-TAF:

METAR-TAF

Aéroports :

Base aérienne de Florennes

Florennes, Belgique

latitude: 50-14N, longitude: 004-39E, altitude: 279 m

Observation

Le bulletin a été fait il y a 23 minutes, à 01:25 UTC
Vent 7 kt de nord
Température 2°C
Humidité 87%
Pression 1025 hPa
Visibilité 10 km ou plus

METAR: EBFS 170125Z AUTO 01007KT 9999 FEW220/// 02/M00 Q1025 BLU

Heure: 03:48 (01:48 UTC)

Prévision

Le bulletin a été fait il y a 10 heures et 7 minutes, à 15:41 UTC
Prévision valable du 16 à 19 UTC au 17 à 07 UTC
Vent 5 kt de nord-est
Visibilité 10 km ou plus
Nuages fragmentés à une hauteur de 5000 ft
Temporairement
du 16 à 23 UTC au 17 à 07 UTC
Visibilité: 5000 m
brume
Probabilité 30% :
Temporairement
du 17 à 04 UTC au 17 à 07 UTC
Visibilité: 3000 m
Nuages épars à une hauteur de 200 ft
brume

TAF: EBFS 161541Z 1619/1707 04005KT 9999 BKN050 TEMPO 1623/1707 5000 BR PROB30 TEMPO 1704/1707 3000 BR SCT002

Observations et prévisions météorologiques de plus de 4000 aéroports (messages METAR et TAF).

Les stations disponibles sont représentées par des disques jaunes et rouges sur la carte.

Passer la souris dessus pour voir le nom de la station.

Cliquer dessus pour voir les observations et prévisions météorologiques.

Pour changer de carte: cliquez sur les boutons verts avec une croix noire pour zoomer, sur le bouton vert avec un tiret pour effectuer un zoom arrière, ou sur les flèches vertes pour les cartes adjacentes.


METAR-TAF: